Ashford, Washington
Current Conditions -  °F | °C
As of 11:58 PM on Sunday 23 Nov 2014 (Local Time) from KGRF Reporting Station
Clear Clear  
Wind Chill: 35°   Ceiling: Unl
Heat Index: 39°   Visibility: 10mi
Dew Point: 39°   Wind: 6mph
Humidity: 99%   Direction: 130°SE
Pressure: 30.36"   Gusts: NA
Location:  46.76°N, 122.03°W
Report Text: KGRF 240758Z AUTO 13005KT 10SM CLR 04/04 A3036 RMK AO2 SLP286 T00390038 401180039 PWINO $
Loading
Personal Weather Stations






























Interactive Weather Map New forecast layout! Learn more

10-Day Weather Forecast

Advertisements
Track Severe Weather on mobile